Powells Crossroads, Tennessee
Current Conditions -  °F | °C
As of 1:53 AM on Wednesday 22 Oct 2014 (Local Time) from KCHA Reporting Station
Clear Clear  
Wind Chill: 51°   Ceiling: Unl
Heat Index: 51°   Visibility: 10mi
Dew Point: 41°   Wind: 7mph
Humidity: 68%   Direction: 350°N
Pressure: 30.1"   Gusts: NA
Location:  35.1929°N, 85.5025°W
Report Text: KCHA 220653Z AUTO 35006KT 10SM CLR 11/05 A3010 RMK AO2 SLP188 T01060050
Loading
Personal Weather Stations






























Interactive Weather Map
Tropical Storm Tracking
New forecast layout! Learn more

10-Day Weather Forecast

Advertisements
Track Severe Weather on mobile